La Palma, Panama
Current Conditions -  °F | °C
As of 5:00 AM on Monday 20 Oct 2014 (Local Time) from MPTO Reporting Station
Scattered Clouds Scattered Clouds  
Wind Chill: 77°   Ceiling: Unl
Heat Index: 78°   Visibility: 6mi
Dew Point: 75°   Wind: 6mph
Humidity: 94%   Direction: 10°N
Pressure: 29.8"   Gusts: NA
Location:  8.41°N, 78.15°W
Report Text: MPTO 201000Z 01005KT 9999 SCT018 SCT080 25/24 Q1009 NOSIG
Loading
Personal Weather Stations






























Interactive Weather Map
Tropical Storm Tracking
New forecast layout! Learn more

10-Day Weather Forecast

Advertisements
Track Severe Weather on mobile